createdAt,value
2022-09-23T00:01:20.840Z,98522.88
2022-09-23T00:03:49.356Z,98521.31
2022-09-23T00:06:24.237Z,98516.91
2022-09-23T00:08:52.533Z,98518.69
2022-09-23T00:11:25.342Z,98519.72
2022-09-23T00:13:58.864Z,98516.66
2022-09-23T00:16:32.683Z,98521.25
2022-09-23T00:19:02.544Z,98513.78
2022-09-23T00:21:30.074Z,98514.00
2022-09-23T00:23:57.558Z,98517.44
2022-09-23T00:26:25.038Z,98514.09
2022-09-23T00:28:52.661Z,98513.53
2022-09-23T00:31:27.396Z,98510.09
2022-09-23T00:34:00.450Z,98506.66
2022-09-23T00:36:29.669Z,98511.03
2022-09-23T00:38:57.369Z,98498.06
2022-09-23T00:41:26.077Z,98500.13
2022-09-23T00:44:00.537Z,98500.22
2022-09-23T00:46:43.617Z,98497.59
2022-09-23T00:49:20.950Z,98494.91
2022-09-23T00:51:59.104Z,98495.09
2022-09-23T00:54:27.854Z,98488.09
2022-09-23T00:56:57.699Z,98498.44
2022-09-23T00:59:26.326Z,98493.84
2022-09-23T01:01:57.979Z,98493.03
2022-09-23T01:04:28.865Z,98488.56
2022-09-23T01:06:56.158Z,98493.84
2022-09-23T01:09:25.309Z,98487.78
2022-09-23T01:12:24.417Z,98488.38
2022-09-23T01:15:12.695Z,98490.25
2022-09-23T01:18:23.165Z,98484.19
2022-09-23T01:20:59.453Z,98486.91
2022-09-23T01:24:07.962Z,98482.72
2022-09-23T01:27:19.491Z,98479.44
2022-09-23T01:30:08.381Z,98479.81
2022-09-23T01:32:53.370Z,98480.84
2022-09-23T01:35:44.458Z,98479.81
2022-09-23T01:38:51.415Z,98479.81
2022-09-23T01:42:07.273Z,98481.69
2022-09-23T01:45:05.467Z,98473.84
2022-09-23T01:47:39.966Z,98474.59
2022-09-23T01:50:35.495Z,98476.19
2022-09-23T01:53:12.093Z,98470.88
2022-09-23T01:55:48.723Z,98472.75
2022-09-23T01:58:38.146Z,98478.81
2022-09-23T02:01:08.700Z,98478.72
2022-09-23T02:04:04.253Z,98475.16
2022-09-23T02:06:50.826Z,98469.00
2022-09-23T02:09:28.626Z,98474.13
2022-09-23T02:12:06.157Z,98474.97
2022-09-23T02:14:52.122Z,98480.09
2022-09-23T02:17:39.725Z,98475.88
2022-09-23T02:20:08.171Z,98473.19
2022-09-23T02:23:08.757Z,98468.47
2022-09-23T02:26:00.644Z,98478.72
2022-09-23T02:29:13.373Z,98469.94
2022-09-23T02:31:50.210Z,98468.25
2022-09-23T02:34:50.313Z,98463.88
2022-09-23T02:37:54.011Z,98471.81
2022-09-23T02:40:53.755Z,98470.13
2022-09-23T02:43:52.097Z,98473.69
2022-09-23T02:46:20.569Z,98466.13
2022-09-23T02:49:11.215Z,98472.19
2022-09-23T02:51:40.951Z,98463.41
2022-09-23T02:54:14.997Z,98465.28
2022-09-23T02:56:42.676Z,98471.16
2022-09-23T02:59:12.382Z,98458.03
2022-09-23T03:02:20.737Z,98459.44
2022-09-23T03:05:34.888Z,98469.31
2022-09-23T03:08:22.581Z,98456.25
2022-09-23T03:11:07.014Z,98468.28
2022-09-23T03:14:07.606Z,98456.88
2022-09-23T03:16:58.364Z,98458.75
2022-09-23T03:19:45.714Z,98457.19
2022-09-23T03:22:21.388Z,98453.53
2022-09-23T03:24:54.048Z,98453.38
2022-09-23T03:27:28.602Z,98456.88
2022-09-23T03:29:57.454Z,98455.03
2022-09-23T03:32:29.122Z,98467.16
2022-09-23T03:35:01.142Z,98462.56
2022-09-23T03:37:37.717Z,98457.19
2022-09-23T03:40:30.884Z,98465.75
2022-09-23T03:43:01.480Z,98464.50
2022-09-23T03:45:34.189Z,98460.97
2022-09-23T03:48:03.258Z,98465.06
2022-09-23T03:50:30.715Z,98460.78
2022-09-23T03:52:58.442Z,98467.88
2022-09-23T03:55:25.963Z,98464.50
2022-09-23T03:57:53.542Z,98458.03
2022-09-23T04:00:20.818Z,98460.63
2022-09-23T04:02:49.907Z,98457.19
2022-09-23T04:05:18.103Z,98453.81
2022-09-23T04:07:45.809Z,98458.03
2022-09-23T04:10:13.190Z,98464.91
2022-09-23T04:12:40.438Z,98461.25
2022-09-23T04:15:08.075Z,98459.50
2022-09-23T04:17:35.645Z,98460.44
2022-09-23T04:20:04.114Z,98454.25
2022-09-23T04:22:33.270Z,98461.91
2022-09-23T04:25:00.751Z,98462.56
2022-09-23T04:27:27.964Z,98451.38
2022-09-23T04:29:55.162Z,98450.63
2022-09-23T04:32:22.779Z,98452.28
2022-09-23T04:34:49.928Z,98454.06
2022-09-23T04:37:17.138Z,98452.22
2022-09-23T04:39:44.554Z,98448.66
2022-09-23T04:42:11.699Z,98451.91
2022-09-23T04:44:39.811Z,98452.66
2022-09-23T04:47:07.513Z,98451.81
2022-09-23T04:49:34.878Z,98454.41
2022-09-23T04:52:02.912Z,98454.41
2022-09-23T04:54:30.286Z,98453.31
2022-09-23T04:56:57.626Z,98453.19
2022-09-23T04:59:25.124Z,98451.78
2022-09-23T05:01:54.634Z,98456.50
2022-09-23T05:04:21.915Z,98463.66
2022-09-23T05:06:49.350Z,98453.72
2022-09-23T05:09:17.970Z,98455.75
2022-09-23T05:11:45.758Z,98460.38
2022-09-23T05:14:13.355Z,98463.13
2022-09-23T05:16:41.064Z,98464.69
2022-09-23T05:19:08.378Z,98465.97
2022-09-23T05:21:36.635Z,98473.84
2022-09-23T05:24:04.248Z,98470.63
2022-09-23T05:26:32.945Z,98474.53
2022-09-23T05:29:00.933Z,98478.91
2022-09-23T05:31:30.547Z,98476.50
2022-09-23T05:34:04.805Z,98476.75
2022-09-23T05:36:38.732Z,98481.97
2022-09-23T05:39:08.238Z,98476.28
2022-09-23T05:41:37.191Z,98486.63
2022-09-23T05:44:04.889Z,98478.97
2022-09-23T05:46:33.216Z,98478.31
2022-09-23T05:49:03.353Z,98477.19
2022-09-23T05:51:32.899Z,98479.47
2022-09-23T05:54:04.400Z,98484.56
2022-09-23T05:56:34.518Z,98488.44
2022-09-23T05:59:03.728Z,98482.75
2022-09-23T06:01:35.408Z,98485.66
2022-09-23T06:04:06.194Z,98487.47
2022-09-23T06:06:37.222Z,98487.84
2022-09-23T06:09:06.917Z,98491.31
2022-09-23T06:11:36.080Z,98488.19
2022-09-23T06:14:04.339Z,98489.56
2022-09-23T06:16:35.360Z,98484.63
2022-09-23T06:19:06.476Z,98484.28
2022-09-23T06:21:40.606Z,98485.13
2022-09-23T06:24:09.830Z,98484.13
2022-09-23T06:26:38.426Z,98491.06
2022-09-23T06:29:12.175Z,98486.06
2022-09-23T06:31:42.168Z,98486.59
2022-09-23T06:34:14.599Z,98490.16
2022-09-23T06:36:45.434Z,98493.50
2022-09-23T06:39:15.384Z,98493.84
2022-09-23T06:41:44.393Z,98497.44
2022-09-23T06:44:13.271Z,98504.16
2022-09-23T06:46:40.662Z,98499.56
2022-09-23T06:49:08.233Z,98501.81
2022-09-23T06:51:36.809Z,98504.59
2022-09-23T06:54:04.533Z,98503.25
2022-09-23T06:56:37.824Z,98509.94
2022-09-23T06:59:09.520Z,98505.38
2022-09-23T07:01:37.157Z,98503.84
2022-09-23T07:04:04.739Z,98510.28
2022-09-23T07:06:32.173Z,98510.00
2022-09-23T07:09:01.070Z,98508.00
2022-09-23T07:11:28.532Z,98520.28
2022-09-23T07:13:55.804Z,98505.66
2022-09-23T07:16:23.616Z,98500.41
2022-09-23T07:18:52.472Z,98496.00
2022-09-23T07:21:19.976Z,98503.78
2022-09-23T07:23:51.434Z,98498.72
2022-09-23T07:26:20.367Z,98510.44
2022-09-23T07:28:47.805Z,98508.34
2022-09-23T07:31:30.670Z,98525.78
2022-09-23T07:34:01.471Z,98522.31
2022-09-23T07:36:32.864Z,98524.09
2022-09-23T07:39:04.524Z,98522.00
2022-09-23T07:41:33.889Z,98530.28
2022-09-23T07:44:01.694Z,98526.44
2022-09-23T07:46:33.250Z,98530.84
2022-09-23T07:49:02.435Z,98529.75
2022-09-23T07:51:36.916Z,98529.50
2022-09-23T07:54:13.637Z,98531.25
2022-09-23T07:56:42.936Z,98532.09
2022-09-23T07:59:20.349Z,98532.63
2022-09-23T08:01:52.746Z,98539.19
2022-09-23T08:04:31.235Z,98535.25
2022-09-23T08:07:04.791Z,98532.81
2022-09-23T08:09:41.750Z,98532.00
2022-09-23T08:12:15.889Z,98520.34
2022-09-23T08:14:45.384Z,98528.63
2022-09-23T08:17:14.162Z,98528.63
2022-09-23T08:19:41.309Z,98528.84
2022-09-23T08:22:08.794Z,98528.56
2022-09-23T08:24:36.077Z,98526.31
2022-09-23T08:27:03.535Z,98526.66
2022-09-23T08:29:30.898Z,98525.47
2022-09-23T08:31:58.265Z,98520.81
2022-09-23T08:34:27.986Z,98520.50
2022-09-23T08:36:55.537Z,98519.16
2022-09-23T08:39:23.243Z,98519.19
2022-09-23T08:42:21.728Z,98525.38
2022-09-23T08:44:56.394Z,98509.47
2022-09-23T08:47:32.371Z,98506.84
2022-09-23T08:50:18.224Z,98504.22
2022-09-23T08:52:59.415Z,98500.88
2022-09-23T08:55:46.124Z,98506.91
2022-09-23T08:58:44.071Z,98500.88
2022-09-23T09:01:31.620Z,98502.38
2022-09-23T09:04:02.889Z,98501.22
2022-09-23T09:06:52.218Z,98500.22
2022-09-23T09:09:36.350Z,98497.53
2022-09-23T09:12:34.191Z,98496.63
2022-09-23T09:15:13.166Z,98494.94
2022-09-23T09:17:51.909Z,98496.69
2022-09-23T09:20:39.990Z,98497.72
2022-09-23T09:23:37.686Z,98499.63
2022-09-23T09:26:11.255Z,98492.56
2022-09-23T09:28:59.112Z,98492.25
2022-09-23T09:31:37.016Z,98494.41
2022-09-23T09:34:38.268Z,98484.34
2022-09-23T09:37:35.919Z,98489.00
2022-09-23T09:40:04.273Z,98479.94
2022-09-23T09:42:40.519Z,98480.84
2022-09-23T09:45:45.350Z,98469.88
2022-09-23T09:48:50.873Z,98472.59
2022-09-23T09:51:25.372Z,98467.63
2022-09-23T09:53:52.735Z,98457.72
2022-09-23T09:56:31.147Z,98456.88
2022-09-23T09:59:25.717Z,98451.34
2022-09-23T10:02:25.942Z,98451.31
2022-09-23T10:05:46.807Z,98444.97
2022-09-23T10:08:32.456Z,98448.97
2022-09-23T10:11:04.459Z,98446.94
2022-09-23T10:13:32.569Z,98440.03
2022-09-23T10:16:04.047Z,98440.13
2022-09-23T10:18:48.227Z,98439.59
2022-09-23T10:21:26.939Z,98451.88
2022-09-23T10:23:58.678Z,98444.22
2022-09-23T10:26:34.072Z,98443.88
2022-09-23T10:29:48.739Z,98439.84
2022-09-23T10:32:33.356Z,98434.69
2022-09-23T10:35:09.458Z,98435.72
2022-09-23T10:37:59.632Z,98437.13
2022-09-23T10:40:50.234Z,98433.34
2022-09-23T10:44:32.934Z,98437.66
2022-09-23T10:47:37.021Z,98444.88
2022-09-23T10:50:24.017Z,98453.81
2022-09-23T10:53:15.292Z,98444.00
2022-09-23T10:56:10.880Z,98445.25
2022-09-23T10:59:02.340Z,98442.28
2022-09-23T11:02:08.669Z,98440.72
2022-09-23T11:04:47.278Z,98430.16
2022-09-23T11:08:04.638Z,98418.41
2022-09-23T11:11:13.014Z,98415.78
2022-09-23T11:14:06.695Z,98411.72
2022-09-23T11:17:14.891Z,98414.97
2022-09-23T11:19:58.366Z,98412.63
2022-09-23T11:23:03.270Z,98411.41
2022-09-23T11:26:34.102Z,98411.41
2022-09-23T11:29:35.537Z,98407.78
2022-09-23T11:32:17.719Z,98408.13
2022-09-23T11:35:12.998Z,98410.47
2022-09-23T11:38:01.700Z,98403.59
2022-09-23T11:40:36.505Z,98403.56
2022-09-23T11:43:39.415Z,98407.00
2022-09-23T11:47:07.739Z,98402.91
2022-09-23T11:50:02.348Z,98378.06
2022-09-23T11:52:41.592Z,98376.06
2022-09-23T11:55:31.582Z,98376.53
2022-09-23T11:58:22.587Z,98374.09
2022-09-23T12:01:07.211Z,98367.38
2022-09-23T12:03:53.678Z,98360.31
2022-09-23T12:07:03.541Z,98350.78
2022-09-23T12:09:58.070Z,98329.59
2022-09-23T12:13:10.893Z,98332.31
2022-09-23T12:16:07.071Z,98334.97
2022-09-23T12:19:01.077Z,98327.44
2022-09-23T12:22:03.367Z,98335.16
2022-09-23T12:25:28.886Z,98331.84
2022-09-23T12:28:05.585Z,98327.72
2022-09-23T12:30:37.034Z,98317.41
2022-09-23T12:33:10.284Z,98305.50
2022-09-23T12:35:44.854Z,98299.91
2022-09-23T12:38:38.361Z,98299.75
2022-09-23T12:41:27.146Z,98298.38
2022-09-23T12:44:15.468Z,98298.09
2022-09-23T12:46:47.394Z,98302.91
2022-09-23T12:49:29.900Z,98297.78
2022-09-23T12:52:18.638Z,98298.91
2022-09-23T12:54:49.908Z,98298.69
2022-09-23T12:57:35.695Z,98291.91
2022-09-23T13:00:12.920Z,98290.63
2022-09-23T13:02:47.987Z,98279.47
2022-09-23T13:05:37.931Z,98289.28
2022-09-23T13:08:24.439Z,98277.28
2022-09-23T13:11:05.147Z,98278.91
2022-09-23T13:13:44.425Z,98270.47
2022-09-23T13:16:13.031Z,98267.66
2022-09-23T13:19:04.829Z,98257.34
2022-09-23T13:21:47.193Z,98262.06
2022-09-23T13:24:41.276Z,98258.34
2022-09-23T13:27:36.007Z,98256.09
2022-09-23T13:30:25.111Z,98255.41
2022-09-23T13:33:11.191Z,98261.47
2022-09-23T13:35:46.511Z,98255.75
2022-09-23T13:38:26.466Z,98240.09
2022-09-23T13:41:10.621Z,98237.91
2022-09-23T13:43:44.575Z,98238.16
2022-09-23T13:46:27.164Z,98228.56
2022-09-23T13:48:56.438Z,98219.91
2022-09-23T13:51:33.050Z,98215.22
2022-09-23T13:54:03.599Z,98221.81
2022-09-23T13:56:33.865Z,98220.66
2022-09-23T13:59:37.439Z,98216.69
2022-09-23T14:02:12.578Z,98212.97
2022-09-23T14:04:40.498Z,98193.91
2022-09-23T14:07:12.549Z,98190.00
2022-09-23T14:09:50.051Z,98198.94
2022-09-23T14:12:22.470Z,98197.13
2022-09-23T14:14:54.376Z,98191.72
2022-09-23T14:17:23.090Z,98187.94
2022-09-23T14:19:51.537Z,98195.56
2022-09-23T14:22:28.665Z,98199.28
2022-09-23T14:24:57.714Z,98189.13
2022-09-23T14:27:36.236Z,98190.66
2022-09-23T14:30:05.098Z,98201.94
2022-09-23T14:32:33.391Z,98193.22
2022-09-23T14:35:04.062Z,98197.34
2022-09-23T14:37:57.540Z,98196.50
2022-09-23T14:40:32.394Z,98197.56
2022-09-23T14:43:24.280Z,98202.63
2022-09-23T14:45:56.184Z,98187.16
2022-09-23T14:48:34.762Z,98195.75
2022-09-23T14:51:07.464Z,98187.28
2022-09-23T14:53:45.803Z,98185.63
2022-09-23T14:56:17.826Z,98191.28
2022-09-23T14:58:58.119Z,98176.75
2022-09-23T15:01:31.473Z,98179.50
2022-09-23T15:04:16.132Z,98179.13
2022-09-23T15:06:53.608Z,98181.22
2022-09-23T15:09:27.121Z,98175.50
2022-09-23T15:12:01.411Z,98174.97
2022-09-23T15:14:38.814Z,98172.47
2022-09-23T15:17:25.780Z,98180.81
2022-09-23T15:20:18.525Z,98183.34
2022-09-23T15:22:50.699Z,98177.88
2022-09-23T15:25:22.747Z,98176.06
2022-09-23T15:28:15.963Z,98172.50
2022-09-23T15:30:43.416Z,98178.38
2022-09-23T15:33:17.653Z,98165.59
2022-09-23T15:35:49.493Z,98169.06
2022-09-23T15:38:17.872Z,98168.41
2022-09-23T15:40:46.062Z,98168.97
2022-09-23T15:43:23.433Z,98164.84
2022-09-23T15:46:05.117Z,98165.88
2022-09-23T15:48:52.356Z,98163.41
2022-09-23T15:51:23.329Z,98165.47
2022-09-23T15:53:55.227Z,98164.38
2022-09-23T15:56:24.651Z,98163.72
2022-09-23T15:58:51.881Z,98165.25
2022-09-23T16:01:30.346Z,98165.94
2022-09-23T16:04:00.268Z,98171.34
2022-09-23T16:06:28.155Z,98160.41
2022-09-23T16:08:55.992Z,98165.19
2022-09-23T16:11:31.826Z,98169.72
2022-09-23T16:14:00.840Z,98167.09
2022-09-23T16:16:28.977Z,98173.47
2022-09-23T16:18:56.240Z,98168.41
2022-09-23T16:21:28.691Z,98171.19
2022-09-23T16:23:57.386Z,98166.13
2022-09-23T16:26:34.750Z,98168.63
2022-09-23T16:29:02.630Z,98174.13
2022-09-23T16:31:31.352Z,98169.09
2022-09-23T16:34:02.198Z,98170.97
2022-09-23T16:36:41.138Z,98173.13
2022-09-23T16:39:12.448Z,98174.19
2022-09-23T16:41:42.908Z,98165.34
2022-09-23T16:44:12.581Z,98165.25
2022-09-23T16:46:42.939Z,98162.53
2022-09-23T16:49:12.226Z,98172.44
2022-09-23T16:51:40.335Z,98168.84
2022-09-23T16:54:11.925Z,98159.31
2022-09-23T16:56:46.472Z,98172.56
2022-09-23T16:59:15.672Z,98168.31
2022-09-23T17:02:02.602Z,98165.13
2022-09-23T17:04:29.963Z,98174.06
2022-09-23T17:06:57.897Z,98165.47
2022-09-23T17:09:30.259Z,98164.22
2022-09-23T17:12:18.454Z,98158.81
2022-09-23T17:14:45.954Z,98158.00
2022-09-23T17:17:13.214Z,98159.81
2022-09-23T17:19:41.562Z,98162.44
2022-09-23T17:22:10.024Z,98167.28
2022-09-23T17:24:37.201Z,98179.06
2022-09-23T17:27:04.443Z,98168.94
2022-09-23T17:29:32.088Z,98167.81
2022-09-23T17:31:59.420Z,98169.34
2022-09-23T17:34:28.886Z,98171.69
2022-09-23T17:36:56.462Z,98165.88
2022-09-23T17:39:23.698Z,98167.63
2022-09-23T17:41:51.360Z,98173.59
2022-09-23T17:44:18.994Z,98171.59
2022-09-23T17:46:47.259Z,98177.66
2022-09-23T17:49:15.128Z,98179.00
2022-09-23T17:51:42.934Z,98177.31
2022-09-23T17:54:11.115Z,98178.38
2022-09-23T17:56:38.356Z,98169.16
2022-09-23T17:59:05.889Z,98177.81
2022-09-23T18:01:35.230Z,98183.16
2022-09-23T18:04:05.806Z,98175.19
2022-09-23T18:06:37.310Z,98178.84
2022-09-23T18:09:07.800Z,98178.22
2022-09-23T18:11:38.774Z,98187.53
2022-09-23T18:14:13.139Z,98181.34
2022-09-23T18:16:43.224Z,98186.97
2022-09-23T18:19:14.400Z,98192.91
2022-09-23T18:21:47.069Z,98189.16
2022-09-23T18:24:31.827Z,98193.66
2022-09-23T18:27:01.367Z,98192.84
2022-09-23T18:29:28.807Z,98186.06
2022-09-23T18:31:56.482Z,98182.59
2022-09-23T18:34:24.543Z,98188.69
2022-09-23T18:36:51.988Z,98182.72
2022-09-23T18:39:19.533Z,98183.44
2022-09-23T18:41:49.619Z,98177.47
2022-09-23T18:44:17.324Z,98179.31
2022-09-23T18:46:44.898Z,98183.03
2022-09-23T18:49:50.805Z,98182.81
2022-09-23T18:52:18.276Z,98178.28
2022-09-23T18:54:46.970Z,98182.13
2022-09-23T18:57:14.748Z,98179.50
2022-09-23T18:59:42.228Z,98178.78
2022-09-23T19:02:10.044Z,98185.72
2022-09-23T19:04:38.315Z,98183.78
2022-09-23T19:07:07.114Z,98180.47
2022-09-23T19:09:34.654Z,98178.19
2022-09-23T19:12:03.471Z,98179.88
2022-09-23T19:14:30.692Z,98185.72
2022-09-23T19:16:59.054Z,98183.69
2022-09-23T19:19:26.324Z,98187.41
2022-09-23T19:21:54.903Z,98175.94
2022-09-23T19:24:22.780Z,98182.41
2022-09-23T19:26:50.477Z,98182.50
2022-09-23T19:29:22.154Z,98181.66
2022-09-23T19:31:51.068Z,98179.00
2022-09-23T19:34:26.105Z,98177.22
2022-09-23T19:36:59.995Z,98176.38
2022-09-23T19:39:31.807Z,98174.34
2022-09-23T19:41:59.494Z,98178.13
2022-09-23T19:44:28.694Z,98171.00
2022-09-23T19:46:57.544Z,98171.94
2022-09-23T19:49:26.294Z,98178.88
2022-09-23T19:51:56.056Z,98166.69
2022-09-23T19:54:26.694Z,98176.59
2022-09-23T19:56:54.433Z,98165.53
2022-09-23T19:59:21.728Z,98170.13
2022-09-23T20:01:49.402Z,98171.53
2022-09-23T20:04:17.310Z,98163.91
2022-09-23T20:06:46.158Z,98160.88
2022-09-23T20:09:13.775Z,98168.34
2022-09-23T20:11:43.190Z,98172.34
2022-09-23T20:14:11.142Z,98171.75
2022-09-23T20:16:39.518Z,98170.69
2022-09-23T20:19:07.214Z,98164.72
2022-09-23T20:21:35.491Z,98156.03
2022-09-23T20:24:07.627Z,98163.53
2022-09-23T20:26:54.247Z,98164.03
2022-09-23T20:29:22.073Z,98164.69
2022-09-23T20:31:49.771Z,98156.97
2022-09-23T20:34:17.071Z,98156.72
2022-09-23T20:36:44.340Z,98159.09
2022-09-23T20:39:11.792Z,98161.13
2022-09-23T20:41:39.887Z,98156.84
2022-09-23T20:44:14.011Z,98157.31
2022-09-23T20:46:48.477Z,98151.81
2022-09-23T20:49:20.950Z,98146.56
2022-09-23T20:51:49.416Z,98156.13
2022-09-23T20:54:21.046Z,98144.06
2022-09-23T20:56:48.504Z,98142.94
2022-09-23T20:59:18.012Z,98146.38
2022-09-23T21:01:45.596Z,98143.47
2022-09-23T21:04:13.315Z,98149.03
2022-09-23T21:06:40.748Z,98147.25
2022-09-23T21:09:08.187Z,98150.75
2022-09-23T21:11:35.742Z,98147.22
2022-09-23T21:14:03.394Z,98152.16
2022-09-23T21:16:31.102Z,98151.16
2022-09-23T21:19:00.050Z,98150.16
2022-09-23T21:21:27.570Z,98153.59
2022-09-23T21:23:56.491Z,98148.06
2022-09-23T21:26:31.424Z,98150.69
2022-09-23T21:29:01.430Z,98155.72
2022-09-23T21:31:38.389Z,98151.31
2022-09-23T21:34:09.203Z,98153.81
2022-09-23T21:36:39.399Z,98150.50
2022-09-23T21:39:09.377Z,98150.78
2022-09-23T21:41:37.910Z,98157.19
2022-09-23T21:44:08.319Z,98153.75
2022-09-23T21:46:36.988Z,98162.00
2022-09-23T21:49:05.305Z,98157.06
2022-09-23T21:51:40.851Z,98151.56
2022-09-23T21:54:15.737Z,98160.31
2022-09-23T21:56:44.613Z,98156.97
2022-09-23T21:59:12.230Z,98158.53
2022-09-23T22:01:44.560Z,98161.81
2022-09-23T22:04:17.761Z,98165.97
2022-09-23T22:06:46.628Z,98160.75
2022-09-23T22:09:18.663Z,98157.84
2022-09-23T22:12:05.240Z,98154.28
2022-09-23T22:14:33.120Z,98158.03
2022-09-23T22:17:03.871Z,98161.38
2022-09-23T22:19:40.223Z,98160.75
2022-09-23T22:22:15.948Z,98161.56
2022-09-23T22:24:45.842Z,98161.38
2022-09-23T22:27:17.029Z,98167.94
2022-09-23T22:30:02.517Z,98161.97
2022-09-23T22:32:41.815Z,98159.25
2022-09-23T22:35:18.880Z,98160.91
2022-09-23T22:37:48.063Z,98151.59
2022-09-23T22:40:16.425Z,98154.94
2022-09-23T22:42:44.231Z,98148.47
2022-09-23T22:45:13.113Z,98147.06
2022-09-23T22:47:43.606Z,98145.75
2022-09-23T22:50:12.235Z,98144.19
2022-09-23T22:52:40.523Z,98138.22
2022-09-23T22:55:08.508Z,98150.34
2022-09-23T22:57:36.776Z,98140.06
2022-09-23T23:00:06.855Z,98152.34
2022-09-23T23:02:34.412Z,98145.78
2022-09-23T23:05:02.289Z,98145.03
2022-09-23T23:07:29.759Z,98142.44
2022-09-23T23:09:57.036Z,98141.50
2022-09-23T23:12:24.299Z,98144.94
2022-09-23T23:14:51.672Z,98144.09
2022-09-23T23:17:18.979Z,98142.31
2022-09-23T23:19:47.540Z,98142.91
2022-09-23T23:22:14.927Z,98139.38
2022-09-23T23:24:42.226Z,98137.16
2022-09-23T23:27:09.475Z,98138.53
2022-09-23T23:29:36.868Z,98133.22
2022-09-23T23:32:05.170Z,98135.63
2022-09-23T23:34:32.363Z,98127.78
2022-09-23T23:36:59.713Z,98130.31
2022-09-23T23:39:26.921Z,98126.56
2022-09-23T23:41:56.890Z,98123.47
2022-09-23T23:44:26.577Z,98129.13
2022-09-23T23:46:55.177Z,98128.06
2022-09-23T23:49:23.084Z,98126.84
2022-09-23T23:51:50.523Z,98125.63
2022-09-23T23:54:17.809Z,98125.31
2022-09-23T23:56:45.270Z,98127.81
2022-09-23T23:59:12.853Z,98127.19
